Southport, Indiana
Current Conditions -  °F | °C
As of 11:54 PM on Friday 24 Oct 2014 (Local Time) from KIND Reporting Station
Scattered Clouds Scattered Clouds  
Wind Chill: 52°   Ceiling: Unl
Heat Index: 52°   Visibility: 10mi
Dew Point: 48°   Wind: 7mph
Humidity: 86%   Direction: 230°SW
Pressure: 30.02"   Gusts: NA
Location:  39.6749°N, 86.1316°W
Report Text: KIND 250354Z 23006KT 10SM SCT090 11/09 A3002 RMK AO2 SLP165 T01110089
Loading
Personal Weather Stations






























Interactive Weather Map
Tropical Storm Tracking
New forecast layout! Learn more

10-Day Weather Forecast

Advertisements
Track Severe Weather on mobile